Time;durP1;ratioP1;P1;durP2;ratioP2;P2;SDS_P1;SDS_P2;PMS_P1;PMS_P2;Temp;Humidity;BMP_temperature;BMP_pressure;BME280_temperature;BME280_humidity;BME280_pressure;Samples;Min_cycle;Max_cycle;Signal;HPM_P1;HPM_P2
2023/06/14 00:01:52;;;;;;;5.28;1.25;;;;;;;;;;4911321;28;20105;-76
2023/06/14 00:04:20;;;;;;;3.22;1.77;;;;;;;;;;4931770;28;20138;-76
2023/06/14 00:06:48;;;;;;;4.80;1.42;;;;;;;;;;4914728;28;20055;-76
2023/06/14 00:09:14;;;;;;;6.38;1.55;;;;;;;;;;4917583;28;20051;-75
2023/06/14 00:11:41;;;;;;;5.90;1.60;;;;;;;;;;4927687;28;20055;-76
2023/06/14 00:14:08;;;;;;;1.55;1.20;;;;;;;;;;4916640;28;20054;-76
2023/06/14 00:16:35;;;;;;;8.57;1.77;;;;;;;;;;4917176;28;20097;-76
2023/06/14 00:19:03;;;;;;;2.50;1.30;;;;;;;;;;4932948;28;20047;-76
2023/06/14 00:21:29;;;;;;;1.88;1.40;;;;;;;;;;4917014;28;20043;-76
2023/06/14 00:23:56;;;;;;;5.05;1.25;;;;;;;;;;4916744;28;20066;-76
2023/06/14 00:26:22;;;;;;;8.10;1.90;;;;;;;;;;4915301;28;20055;-75
2023/06/14 00:28:48;;;;;;;4.85;1.30;;;;;;;;;;4921342;28;20051;-76
2023/06/14 00:31:14;;;;;;;1.33;1.23;;;;;;;;;;4914892;28;20063;-76
2023/06/14 00:33:40;;;;;;;2.47;1.65;;;;;;;;;;4923821;28;20767;-76
2023/06/14 00:36:06;;;;;;;3.90;1.52;;;;;;;;;;4905785;29;20051;-76
2023/06/14 00:38:33;;;;;;;2.97;1.33;;;;;;;;;;4913941;28;20090;-76
2023/06/14 00:40:59;;;;;;;1.88;1.10;;;;;;;;;;4925007;28;20039;-76
2023/06/14 00:43:25;;;;;;;4.82;1.80;;;;;;;;;;4901864;28;20499;-76
2023/06/14 00:45:52;;;;;;;3.17;1.30;;;;;;;;;;4904931;29;20047;-76
2023/06/14 00:48:18;;;;;;;10.32;1.35;;;;;;;;;;4910836;28;20040;-76
2023/06/14 00:50:48;;;;;;;3.08;1.30;;;;;;;;;;4914111;28;20537;-76
2023/06/14 00:53:15;;;;;;;6.95;1.50;;;;;;;;;;4914758;28;20522;-76
2023/06/14 00:55:41;;;;;;;6.65;1.20;;;;;;;;;;4910906;28;20051;-76
2023/06/14 00:58:08;;;;;;;2.92;1.40;;;;;;;;;;4913304;28;20093;-76
2023/06/14 01:00:34;;;;;;;3.85;1.67;;;;;;;;;;4929129;28;20518;-76
2023/06/14 01:03:01;;;;;;;2.40;1.50;;;;;;;;;;4914923;28;20042;-76
2023/06/14 01:05:27;;;;;;;3.13;1.70;;;;;;;;;;4908609;28;20177;-76
2023/06/14 01:08:12;;;;;;;4.07;2.05;;;;;;;;;;4908416;28;20521;-76
2023/06/14 01:10:38;;;;;;;4.82;1.48;;;;;;;;;;4927839;28;21123;-76
2023/06/14 01:13:17;;;;;;;2.55;1.38;;;;;;;;;;4928187;28;20039;-76
2023/06/14 01:15:44;;;;;;;5.65;1.60;;;;;;;;;;4929967;28;20090;-76
2023/06/14 01:18:17;;;;;;;4.22;1.50;;;;;;;;;;4928143;28;20062;-77
2023/06/14 01:20:44;;;;;;;2.45;1.40;;;;;;;;;;4898010;28;20051;-76
2023/06/14 01:23:14;;;;;;;4.97;1.70;;;;;;;;;;4928042;28;20043;-76
2023/06/14 01:25:44;;;;;;;4.90;1.80;;;;;;;;;;4928839;28;20071;-77
2023/06/14 01:28:11;;;;;;;3.83;1.85;;;;;;;;;;4914254;28;20066;-76
2023/06/14 01:30:37;;;;;;;4.57;1.67;;;;;;;;;;4913884;28;20071;-77
2023/06/14 01:33:05;;;;;;;4.68;1.85;;;;;;;;;;4929051;28;20114;-76
2023/06/14 01:35:31;;;;;;;2.85;1.60;;;;;;;;;;4925505;28;20044;-76
2023/06/14 01:37:57;;;;;;;3.03;1.52;;;;;;;;;;4919558;28;20403;-76
2023/06/14 01:40:24;;;;;;;3.33;2.30;;;;;;;;;;4930472;28;20058;-76
2023/06/14 01:42:51;;;;;;;4.00;1.67;;;;;;;;;;4916261;28;20047;-77
2023/06/14 01:45:17;;;;;;;6.93;1.77;;;;;;;;;;4930166;28;20053;-76
2023/06/14 01:47:44;;;;;;;3.65;1.90;;;;;;;;;;4914257;28;20599;-76
2023/06/14 01:50:10;;;;;;;11.23;2.35;;;;;;;;;;4932209;28;20109;-76
2023/06/14 01:52:40;;;;;;;3.83;1.85;;;;;;;;;;4906362;28;20047;-76
2023/06/14 01:55:07;;;;;;;5.75;2.00;;;;;;;;;;4921096;28;20046;-76
2023/06/14 01:57:34;;;;;;;5.68;1.90;;;;;;;;;;4911081;28;20047;-76
2023/06/14 02:00:00;;;;;;;5.18;1.80;;;;;;;;;;4909044;28;20583;-76
2023/06/14 02:02:26;;;;;;;2.55;1.70;;;;;;;;;;4909620;28;20054;-76
2023/06/14 02:04:52;;;;;;;3.88;1.98;;;;;;;;;;4910667;28;20086;-76
2023/06/14 02:07:18;;;;;;;8.48;1.98;;;;;;;;;;4925957;28;20686;-76
2023/06/14 02:09:44;;;;;;;6.15;2.15;;;;;;;;;;4924525;28;20039;-76
2023/06/14 02:12:10;;;;;;;7.68;2.47;;;;;;;;;;4913616;28;20137;-76
2023/06/14 02:14:38;;;;;;;4.05;1.98;;;;;;;;;;4920096;28;21167;-76
2023/06/14 02:17:04;;;;;;;6.88;2.20;;;;;;;;;;4918986;28;20078;-76
2023/06/14 02:19:30;;;;;;;4.50;2.10;;;;;;;;;;4935380;28;20182;-76
2023/06/14 02:21:57;;;;;;;5.88;2.10;;;;;;;;;;4935167;28;20477;-76
2023/06/14 02:24:23;;;;;;;2.75;1.85;;;;;;;;;;4922302;28;20046;-76
2023/06/14 02:26:50;;;;;;;4.68;2.47;;;;;;;;;;4916190;28;20099;-70
2023/06/14 02:29:16;;;;;;;6.80;2.25;;;;;;;;;;4920077;28;20079;-70
2023/06/14 02:31:42;;;;;;;4.68;2.10;;;;;;;;;;4915697;28;21917;-71
2023/06/14 02:34:08;;;;;;;4.28;2.30;;;;;;;;;;4918864;28;21242;-70
2023/06/14 02:36:35;;;;;;;4.30;2.00;;;;;;;;;;4933969;28;20043;-71
2023/06/14 02:39:01;;;;;;;3.50;2.50;;;;;;;;;;4919788;28;20066;-70
2023/06/14 02:41:27;;;;;;;5.38;2.40;;;;;;;;;;4932701;28;20057;-71
2023/06/14 02:43:53;;;;;;;5.88;2.85;;;;;;;;;;4932855;28;21959;-70
2023/06/14 02:46:19;;;;;;;5.40;2.25;;;;;;;;;;4933005;28;20055;-70
2023/06/14 02:48:45;;;;;;;3.33;2.28;;;;;;;;;;4921674;28;20051;-71
2023/06/14 02:51:12;;;;;;;4.10;2.33;;;;;;;;;;4932884;28;20059;-70
2023/06/14 02:53:38;;;;;;;5.82;2.28;;;;;;;;;;4914970;28;20983;-71
2023/06/14 02:56:05;;;;;;;4.07;2.35;;;;;;;;;;4934224;28;20415;-71
2023/06/14 02:58:31;;;;;;;5.10;2.38;;;;;;;;;;4934540;28;20466;-71
2023/06/14 03:00:57;;;;;;;6.85;2.67;;;;;;;;;;4930715;28;20456;-70
2023/06/14 03:03:24;;;;;;;5.22;2.50;;;;;;;;;;4922770;28;20870;-70
2023/06/14 03:05:51;;;;;;;6.28;2.28;;;;;;;;;;4906011;28;20086;-70
2023/06/14 03:08:19;;;;;;;4.20;2.58;;;;;;;;;;4917270;28;20051;-70
2023/06/14 03:10:45;;;;;;;5.90;2.45;;;;;;;;;;4916831;28;20051;-71
2023/06/14 03:13:11;;;;;;;6.57;2.38;;;;;;;;;;4915194;28;20047;-70
2023/06/14 03:15:38;;;;;;;6.30;2.40;;;;;;;;;;4900488;28;20515;-70
2023/06/14 03:18:04;;;;;;;7.25;2.85;;;;;;;;;;4931251;28;20054;-71
2023/06/14 03:20:32;;;;;;;7.53;2.83;;;;;;;;;;4915889;28;20074;-70
2023/06/14 03:23:03;;;;;;;5.05;2.50;;;;;;;;;;4919871;28;20173;-70
2023/06/14 03:25:34;;;;;;;7.03;2.50;;;;;;;;;;4912326;28;20063;-70
2023/06/14 03:28:00;;;;;;;5.38;2.67;;;;;;;;;;4922570;28;20717;-70
2023/06/14 03:30:26;;;;;;;6.20;2.90;;;;;;;;;;4925732;28;20047;-70
2023/06/14 03:32:52;;;;;;;6.05;2.55;;;;;;;;;;4912166;28;22283;-69
2023/06/14 03:35:19;;;;;;;7.13;2.72;;;;;;;;;;4914510;28;20074;-70
2023/06/14 03:37:45;;;;;;;6.53;2.63;;;;;;;;;;4908883;28;20047;-70
2023/06/14 03:40:13;;;;;;;7.38;2.95;;;;;;;;;;4930018;28;20130;-70
2023/06/14 03:42:39;;;;;;;6.05;2.72;;;;;;;;;;4932160;28;20039;-70
2023/06/14 03:45:06;;;;;;;7.13;2.75;;;;;;;;;;4921362;28;20221;-70
2023/06/14 03:47:32;;;;;;;5.43;2.58;;;;;;;;;;4899098;28;20077;-70
2023/06/14 03:49:58;;;;;;;5.68;2.55;;;;;;;;;;4908313;28;20047;-71
2023/06/14 03:52:24;;;;;;;6.22;2.90;;;;;;;;;;4931536;28;20054;-70
2023/06/14 03:54:51;;;;;;;3.85;2.67;;;;;;;;;;4929022;28;20403;-70
2023/06/14 03:57:17;;;;;;;5.55;2.83;;;;;;;;;;4909404;28;20481;-70
2023/06/14 03:59:43;;;;;;;5.47;2.97;;;;;;;;;;4929166;28;20428;-70
2023/06/14 04:02:10;;;;;;;4.78;2.67;;;;;;;;;;4930725;28;20043;-70
2023/06/14 04:04:37;;;;;;;7.55;2.97;;;;;;;;;;4927028;28;20389;-70
2023/06/14 04:07:03;;;;;;;9.77;2.90;;;;;;;;;;4924892;28;20408;-70
2023/06/14 04:09:30;;;;;;;10.50;3.00;;;;;;;;;;4925144;28;20438;-70
2023/06/14 04:11:56;;;;;;;9.40;3.05;;;;;;;;;;4900158;29;20055;-70
2023/06/14 04:14:23;;;;;;;5.03;2.67;;;;;;;;;;4926696;28;20057;-70
2023/06/14 04:16:49;;;;;;;5.70;3.17;;;;;;;;;;4912571;28;20047;-70
2023/06/14 04:19:16;;;;;;;6.63;3.10;;;;;;;;;;4907777;28;20043;-70
2023/06/14 04:21:42;;;;;;;4.97;3.22;;;;;;;;;;4891209;29;20595;-69
2023/06/14 04:24:13;;;;;;;7.25;3.08;;;;;;;;;;4923808;28;20047;-70
2023/06/14 04:26:40;;;;;;;8.55;3.20;;;;;;;;;;4903599;28;20051;-70
2023/06/14 04:29:06;;;;;;;5.85;3.08;;;;;;;;;;4914414;28;20102;-70
2023/06/14 04:31:39;;;;;;;8.05;3.10;;;;;;;;;;4911664;28;20467;-70
2023/06/14 04:34:05;;;;;;;5.37;3.13;;;;;;;;;;4926029;28;20448;-69
2023/06/14 04:36:38;;;;;;;7.35;3.22;;;;;;;;;;4911334;28;20521;-70
2023/06/14 04:39:04;;;;;;;6.07;3.30;;;;;;;;;;4913562;28;20099;-70
2023/06/14 04:41:31;;;;;;;5.75;3.10;;;;;;;;;;4929906;28;20059;-70
2023/06/14 04:44:01;;;;;;;6.35;3.40;;;;;;;;;;4931545;28;20051;-70
2023/06/14 04:46:32;;;;;;;9.23;3.42;;;;;;;;;;4932631;28;20772;-70
2023/06/14 04:49:02;;;;;;;4.88;2.83;;;;;;;;;;4918284;28;20146;-70
2023/06/14 04:51:33;;;;;;;4.90;3.33;;;;;;;;;;4914244;28;20815;-69
2023/06/14 04:54:01;;;;;;;7.00;3.42;;;;;;;;;;4931219;28;20074;-70
2023/06/14 04:56:27;;;;;;;6.03;3.17;;;;;;;;;;4916562;28;20055;-70
2023/06/14 04:58:53;;;;;;;6.15;3.55;;;;;;;;;;4928635;28;20077;-70
2023/06/14 05:01:21;;;;;;;4.97;3.10;;;;;;;;;;4929325;28;20051;-70
2023/06/14 05:03:49;;;;;;;5.35;3.58;;;;;;;;;;4915934;28;20039;-70
2023/06/14 05:06:15;;;;;;;5.78;3.13;;;;;;;;;;4929836;28;20036;-70
2023/06/14 05:08:42;;;;;;;5.95;3.30;;;;;;;;;;4927182;28;20051;-70
2023/06/14 05:11:08;;;;;;;9.98;3.50;;;;;;;;;;4914531;28;20043;-70
2023/06/14 05:13:34;;;;;;;10.73;3.35;;;;;;;;;;4927607;28;20999;-70
2023/06/14 05:16:00;;;;;;;6.57;3.15;;;;;;;;;;4930843;28;20975;-70
2023/06/14 05:18:26;;;;;;;6.78;3.30;;;;;;;;;;4932280;28;20051;-70
2023/06/14 05:20:53;;;;;;;5.25;3.10;;;;;;;;;;4917273;28;20047;-69
2023/06/14 05:23:19;;;;;;;10.25;3.00;;;;;;;;;;4928653;28;20039;-70
2023/06/14 05:25:45;;;;;;;7.40;3.22;;;;;;;;;;4927930;28;20645;-71
2023/06/14 05:28:12;;;;;;;4.90;3.17;;;;;;;;;;4915597;28;20404;-71
2023/06/14 05:30:39;;;;;;;6.00;3.13;;;;;;;;;;4927909;28;20492;-76
2023/06/14 05:33:05;;;;;;;7.20;3.10;;;;;;;;;;4932903;28;20061;-75
2023/06/14 05:35:32;;;;;;;8.25;3.25;;;;;;;;;;4932027;28;20099;-76
2023/06/14 05:37:58;;;;;;;9.48;3.53;;;;;;;;;;4931190;28;20058;-76
2023/06/14 05:40:24;;;;;;;5.60;3.25;;;;;;;;;;4931899;28;20049;-76
2023/06/14 05:42:51;;;;;;;5.20;3.42;;;;;;;;;;4930694;28;20439;-76
2023/06/14 05:45:17;;;;;;;4.03;2.90;;;;;;;;;;4912994;28;20564;-77
2023/06/14 05:47:43;;;;;;;7.28;3.65;;;;;;;;;;4911446;28;20166;-76
2023/06/14 05:50:10;;;;;;;9.85;3.58;;;;;;;;;;4928279;28;20047;-76
2023/06/14 05:52:36;;;;;;;5.30;2.85;;;;;;;;;;4910186;28;20082;-76
2023/06/14 05:55:03;;;;;;;8.65;3.00;;;;;;;;;;4916167;28;20058;-76
2023/06/14 05:57:29;;;;;;;4.65;2.78;;;;;;;;;;4915282;28;20135;-74
2023/06/14 05:59:55;;;;;;;4.97;2.90;;;;;;;;;;4913557;28;21263;-75
2023/06/14 06:02:21;;;;;;;5.72;3.10;;;;;;;;;;4927965;28;20099;-75
2023/06/14 06:04:47;;;;;;;5.43;3.03;;;;;;;;;;4911156;28;20134;-77
2023/06/14 06:07:14;;;;;;;10.65;2.83;;;;;;;;;;4916716;28;20222;-74
2023/06/14 06:09:40;;;;;;;8.05;3.10;;;;;;;;;;4917500;28;20499;-75
2023/06/14 06:12:07;;;;;;;8.23;2.97;;;;;;;;;;4901642;28;20054;-75
2023/06/14 06:14:33;;;;;;;8.30;3.05;;;;;;;;;;4917439;28;20077;-74
2023/06/14 06:16:59;;;;;;;5.40;3.60;;;;;;;;;;4917090;28;20549;-75
2023/06/14 06:19:25;;;;;;;7.70;3.10;;;;;;;;;;4932864;28;20047;-74
2023/06/14 06:21:51;;;;;;;5.45;3.13;;;;;;;;;;4918235;28;20048;-74
2023/06/14 06:24:17;;;;;;;8.23;2.92;;;;;;;;;;4931865;28;20086;-75
2023/06/14 06:26:43;;;;;;;6.13;3.28;;;;;;;;;;4932856;28;21227;-75
2023/06/14 06:29:10;;;;;;;8.75;2.72;;;;;;;;;;4911882;28;20142;-76
2023/06/14 06:31:36;;;;;;;5.45;3.20;;;;;;;;;;4933265;28;20047;-75
2023/06/14 06:34:02;;;;;;;5.25;2.70;;;;;;;;;;4909230;29;20059;-76
2023/06/14 06:36:28;;;;;;;5.90;3.03;;;;;;;;;;4917280;28;20146;-75
2023/06/14 06:38:55;;;;;;;11.50;3.72;;;;;;;;;;4912215;28;20047;-75
2023/06/14 06:41:21;;;;;;;17.92;3.63;;;;;;;;;;4916684;28;20166;-75
2023/06/14 06:43:47;;;;;;;5.07;3.17;;;;;;;;;;4902397;28;20112;-75
2023/06/14 06:46:13;;;;;;;9.98;3.20;;;;;;;;;;4913460;28;20117;-75
2023/06/14 06:48:39;;;;;;;6.30;3.05;;;;;;;;;;4916223;28;20058;-75
2023/06/14 06:51:05;;;;;;;6.85;3.22;;;;;;;;;;4915895;28;20064;-75
2023/06/14 06:53:31;;;;;;;3.63;2.92;;;;;;;;;;4916755;28;20655;-75
2023/06/14 06:55:57;;;;;;;5.97;3.13;;;;;;;;;;4913694;28;20050;-74
2023/06/14 06:58:23;;;;;;;8.82;3.00;;;;;;;;;;4934914;28;20050;-75
2023/06/14 07:00:50;;;;;;;8.93;3.42;;;;;;;;;;4934748;28;20555;-74
2023/06/14 07:03:16;;;;;;;5.03;3.30;;;;;;;;;;4920092;28;20051;-74
2023/06/14 07:05:42;;;;;;;6.63;3.10;;;;;;;;;;4919894;28;20244;-75
2023/06/14 07:08:08;;;;;;;8.48;3.05;;;;;;;;;;4914430;28;20042;-75
2023/06/14 07:10:34;;;;;;;9.07;3.42;;;;;;;;;;4919321;28;20051;-74
2023/06/14 07:13:00;;;;;;;3.25;2.63;;;;;;;;;;4933186;28;20119;-74
2023/06/14 07:15:29;;;;;;;6.53;3.08;;;;;;;;;;4928070;28;20043;-75
2023/06/14 07:17:59;;;;;;;8.20;2.95;;;;;;;;;;4930882;28;20535;-74
2023/06/14 07:20:25;;;;;;;4.03;2.67;;;;;;;;;;4917837;28;20123;-75
2023/06/14 07:22:51;;;;;;;4.55;2.78;;;;;;;;;;4924286;28;20043;-75
2023/06/14 07:25:19;;;;;;;3.90;2.60;;;;;;;;;;4901104;28;20047;-75
2023/06/14 07:27:47;;;;;;;4.28;2.72;;;;;;;;;;4936231;28;20054;-75
2023/06/14 07:30:13;;;;;;;4.60;3.00;;;;;;;;;;4918373;28;20508;-75
2023/06/14 07:32:39;;;;;;;8.50;2.90;;;;;;;;;;4914430;28;20055;-75
2023/06/14 07:35:06;;;;;;;4.15;3.00;;;;;;;;;;4914511;28;20043;-75
2023/06/14 07:37:32;;;;;;;5.78;2.60;;;;;;;;;;4899514;28;20058;-75
2023/06/14 07:39:58;;;;;;;5.70;2.70;;;;;;;;;;4920486;28;20046;-74
2023/06/14 07:42:25;;;;;;;4.90;2.63;;;;;;;;;;4919059;28;20131;-75
2023/06/14 07:44:52;;;;;;;5.22;2.75;;;;;;;;;;4927896;28;20516;-75
2023/06/14 07:47:18;;;;;;;9.43;2.55;;;;;;;;;;4917523;28;20101;-74
2023/06/14 07:49:44;;;;;;;8.98;2.75;;;;;;;;;;4927199;28;20039;-75
2023/06/14 07:52:11;;;;;;;5.55;2.90;;;;;;;;;;4905996;28;20055;-75
2023/06/14 07:54:37;;;;;;;3.03;2.60;;;;;;;;;;4919996;28;20087;-75
2023/06/14 07:57:03;;;;;;;3.00;2.58;;;;;;;;;;4930339;28;20122;-74
2023/06/14 07:59:29;;;;;;;3.80;2.70;;;;;;;;;;4917149;28;20039;-75
2023/06/14 08:01:55;;;;;;;3.90;3.00;;;;;;;;;;4927655;28;20047;-74
2023/06/14 08:04:22;;;;;;;3.70;2.83;;;;;;;;;;4934753;28;20661;-74
2023/06/14 08:06:48;;;;;;;6.13;2.97;;;;;;;;;;4935181;28;20063;-74
2023/06/14 08:09:14;;;;;;;12.93;3.05;;;;;;;;;;4917446;28;20078;-75
2023/06/14 08:11:40;;;;;;;8.85;2.90;;;;;;;;;;4925320;28;20082;-74
2023/06/14 08:14:06;;;;;;;3.65;2.70;;;;;;;;;;4931209;28;20054;-74
2023/06/14 08:16:32;;;;;;;5.70;2.95;;;;;;;;;;4921433;28;20050;-75
2023/06/14 08:18:58;;;;;;;8.70;3.13;;;;;;;;;;4918592;28;20135;-74
2023/06/14 08:21:27;;;;;;;9.52;2.90;;;;;;;;;;4912972;28;20047;-74
2023/06/14 08:23:53;;;;;;;7.45;2.80;;;;;;;;;;4918796;28;20043;-75
2023/06/14 08:26:19;;;;;;;3.80;2.63;;;;;;;;;;4931927;28;21814;-74
2023/06/14 08:28:46;;;;;;;4.47;2.55;;;;;;;;;;4917203;28;20040;-75
2023/06/14 08:31:12;;;;;;;4.75;2.58;;;;;;;;;;4933245;28;20078;-75
2023/06/14 08:33:42;;;;;;;6.10;2.60;;;;;;;;;;4917894;28;20050;-75
2023/06/14 08:36:10;;;;;;;4.63;2.53;;;;;;;;;;4906215;28;20035;-75
2023/06/14 08:38:37;;;;;;;4.57;2.85;;;;;;;;;;4931083;28;20090;-74
2023/06/14 08:41:05;;;;;;;9.27;2.63;;;;;;;;;;4933246;28;20039;-74
2023/06/14 08:43:32;;;;;;;5.45;2.58;;;;;;;;;;4917994;28;20423;-75
2023/06/14 08:45:59;;;;;;;6.57;2.70;;;;;;;;;;4914278;28;20495;-74
2023/06/14 08:48:26;;;;;;;5.60;2.88;;;;;;;;;;4932543;28;20043;-74
2023/06/14 08:51:01;;;;;;;10.95;2.78;;;;;;;;;;4901567;28;20067;-75
2023/06/14 08:53:28;;;;;;;14.52;3.17;;;;;;;;;;4931360;28;20047;-75
2023/06/14 08:55:55;;;;;;;7.10;2.80;;;;;;;;;;4933020;28;21975;-75
2023/06/14 08:58:24;;;;;;;6.57;2.75;;;;;;;;;;4920792;28;20047;-75
2023/06/14 09:00:52;;;;;;;6.22;2.85;;;;;;;;;;4916845;28;20054;-74
2023/06/14 09:03:20;;;;;;;4.93;3.00;;;;;;;;;;4931348;28;20035;-75
2023/06/14 09:05:47;;;;;;;8.80;2.72;;;;;;;;;;4919682;28;20062;-75
2023/06/14 09:08:13;;;;;;;8.50;2.63;;;;;;;;;;4915926;28;20359;-75
2023/06/14 09:10:40;;;;;;;6.00;2.70;;;;;;;;;;4930886;28;20387;-75
2023/06/14 09:13:06;;;;;;;9.27;2.42;;;;;;;;;;4916519;28;20043;-75
2023/06/14 09:15:33;;;;;;;10.43;2.88;;;;;;;;;;4917837;28;20050;-75
2023/06/14 09:18:02;;;;;;;5.85;2.42;;;;;;;;;;4899070;28;20043;-75
2023/06/14 09:20:30;;;;;;;7.20;2.85;;;;;;;;;;4910777;28;20043;-75
2023/06/14 09:22:56;;;;;;;8.40;3.17;;;;;;;;;;4917734;28;20243;-75
2023/06/14 09:25:24;;;;;;;4.72;2.17;;;;;;;;;;4918070;28;20055;-75
2023/06/14 09:27:51;;;;;;;6.75;2.15;;;;;;;;;;4912136;28;20134;-75
2023/06/14 09:30:20;;;;;;;7.85;3.30;;;;;;;;;;4932064;28;20046;-75
2023/06/14 09:32:46;;;;;;;5.95;2.05;;;;;;;;;;4899326;28;20047;-75
2023/06/14 09:35:12;;;;;;;6.03;2.30;;;;;;;;;;4913514;28;20408;-75
2023/06/14 09:37:38;;;;;;;6.70;2.35;;;;;;;;;;4916624;28;20086;-76
2023/06/14 09:40:06;;;;;;;4.85;2.42;;;;;;;;;;4898728;28;20047;-76
2023/06/14 09:42:35;;;;;;;4.75;2.33;;;;;;;;;;4930973;28;20050;-76
2023/06/14 09:45:02;;;;;;;7.82;2.60;;;;;;;;;;4932044;28;20055;-76
2023/06/14 09:47:28;;;;;;;3.72;2.05;;;;;;;;;;4915570;28;20047;-76
2023/06/14 09:49:55;;;;;;;6.03;1.98;;;;;;;;;;4898184;28;20055;-75
2023/06/14 09:52:22;;;;;;;14.63;2.42;;;;;;;;;;4915559;28;20055;-75
2023/06/14 09:54:49;;;;;;;5.45;2.95;;;;;;;;;;4916680;28;20109;-75
2023/06/14 09:57:16;;;;;;;14.35;2.17;;;;;;;;;;4932126;28;20043;-75
2023/06/14 09:59:49;;;;;;;10.32;2.20;;;;;;;;;;4931385;28;20063;-75
2023/06/14 10:02:28;;;;;;;5.57;2.35;;;;;;;;;;4927245;28;20047;-75
2023/06/14 10:05:06;;;;;;;3.63;1.90;;;;;;;;;;4914760;28;22033;-75
2023/06/14 10:07:55;;;;;;;3.22;2.30;;;;;;;;;;4919842;28;20522;-75
2023/06/14 10:10:21;;;;;;;5.97;2.00;;;;;;;;;;4907249;28;20907;-75
2023/06/14 10:12:48;;;;;;;6.22;1.80;;;;;;;;;;4916194;28;20051;-75
2023/06/14 10:15:24;;;;;;;5.53;2.08;;;;;;;;;;4926537;28;20043;-75
2023/06/14 10:17:56;;;;;;;4.72;1.90;;;;;;;;;;4911036;28;20611;-75
2023/06/14 10:20:46;;;;;;;4.05;1.90;;;;;;;;;;4917786;28;20126;-76
2023/06/14 10:23:18;;;;;;;8.13;2.15;;;;;;;;;;4910129;28;20055;-75
2023/06/14 10:25:44;;;;;;;6.63;1.90;;;;;;;;;;4927208;28;20499;-75
2023/06/14 10:28:17;;;;;;;2.35;2.10;;;;;;;;;;4932938;28;20047;-75
2023/06/14 10:31:06;;;;;;;5.18;1.73;;;;;;;;;;4917910;28;20150;-76
2023/06/14 10:33:33;;;;;;;10.93;1.92;;;;;;;;;;4928566;28;20048;-75
2023/06/14 10:36:26;;;;;;;7.05;2.58;;;;;;;;;;4915682;28;20043;-75
2023/06/14 10:39:05;;;;;;;6.03;2.22;;;;;;;;;;4919154;28;20496;-75
2023/06/14 10:41:32;;;;;;;5.05;2.25;;;;;;;;;;4922527;28;20047;-75
2023/06/14 10:44:31;;;;;;;3.50;2.00;;;;;;;;;;4921225;28;20050;-76
2023/06/14 10:47:00;;;;;;;6.20;2.17;;;;;;;;;;4878946;28;20059;-76
2023/06/14 10:49:52;;;;;;;5.60;2.20;;;;;;;;;;4920490;28;20648;-75
2023/06/14 10:52:21;;;;;;;3.97;2.47;;;;;;;;;;4918327;28;20404;-75
2023/06/14 10:55:11;;;;;;;4.50;1.90;;;;;;;;;;4918709;28;20119;-75
2023/06/14 10:57:41;;;;;;;3.50;2.10;;;;;;;;;;4919231;28;20511;-75
2023/06/14 11:00:12;;;;;;;6.80;2.10;;;;;;;;;;4930967;28;20535;-75
2023/06/14 11:02:57;;;;;;;7.00;2.20;;;;;;;;;;4915902;28;20047;-75
2023/06/14 11:05:27;;;;;;;7.43;2.17;;;;;;;;;;4920848;28;20039;-75
2023/06/14 11:08:00;;;;;;;4.03;1.98;;;;;;;;;;4931225;28;20451;-75
2023/06/14 11:10:37;;;;;;;4.95;2.08;;;;;;;;;;4933509;28;20059;-76
2023/06/14 11:13:03;;;;;;;4.47;1.80;;;;;;;;;;4930984;28;20500;-76
2023/06/14 11:15:30;;;;;;;2.55;1.88;;;;;;;;;;4918661;28;20092;-75
2023/06/14 11:17:57;;;;;;;4.70;1.88;;;;;;;;;;4930276;28;20530;-75
2023/06/14 11:20:27;;;;;;;3.92;1.90;;;;;;;;;;4918302;28;20085;-76
2023/06/14 11:22:54;;;;;;;4.85;1.90;;;;;;;;;;4935737;28;20074;-75
2023/06/14 11:25:20;;;;;;;5.40;1.80;;;;;;;;;;4912998;28;20501;-75
2023/06/14 11:27:46;;;;;;;8.68;1.90;;;;;;;;;;4894632;28;21694;-76
2023/06/14 11:30:13;;;;;;;7.35;2.75;;;;;;;;;;4914343;28;20050;-77
2023/06/14 11:32:40;;;;;;;1.95;1.75;;;;;;;;;;4913826;28;20044;-76
2023/06/14 11:35:07;;;;;;;6.47;1.75;;;;;;;;;;4917777;28;20090;-77
2023/06/14 11:37:34;;;;;;;4.07;1.70;;;;;;;;;;4915242;28;20052;-81
2023/06/14 11:40:01;;;;;;;2.83;1.65;;;;;;;;;;4917161;28;20043;-78
2023/06/14 11:42:30;;;;;;;3.40;1.80;;;;;;;;;;4934457;28;20043;-77
2023/06/14 11:44:56;;;;;;;5.72;1.90;;;;;;;;;;4934607;28;20484;-77
2023/06/14 11:47:23;;;;;;;7.55;1.73;;;;;;;;;;4934257;28;20069;-77
2023/06/14 11:49:49;;;;;;;7.60;1.75;;;;;;;;;;4934965;28;20555;-77
2023/06/14 11:52:15;;;;;;;5.40;2.17;;;;;;;;;;4929838;28;20516;-77
2023/06/14 11:54:42;;;;;;;6.20;1.90;;;;;;;;;;4913313;28;20059;-77
2023/06/14 11:57:08;;;;;;;4.82;1.70;;;;;;;;;;4928717;28;20086;-77
2023/06/14 11:59:44;;;;;;;6.93;1.90;;;;;;;;;;4920282;28;20085;-77
2023/06/14 12:02:14;;;;;;;3.53;1.65;;;;;;;;;;4933188;28;20071;-77
2023/06/14 12:04:44;;;;;;;5.35;1.65;;;;;;;;;;4918750;28;20040;-78
2023/06/14 12:07:17;;;;;;;2.72;1.40;;;;;;;;;;4898668;28;20217;-77
2023/06/14 12:09:52;;;;;;;2.35;1.30;;;;;;;;;;4933934;28;20075;-77
2023/06/14 12:12:18;;;;;;;3.80;1.33;;;;;;;;;;4914738;28;20051;-77
2023/06/14 12:14:44;;;;;;;3.78;1.50;;;;;;;;;;4929319;28;20810;-77
2023/06/14 12:17:10;;;;;;;5.13;1.30;;;;;;;;;;4927990;28;20173;-77
2023/06/14 12:19:43;;;;;;;4.95;1.50;;;;;;;;;;4914783;28;20051;-77
2023/06/14 12:22:13;;;;;;;2.42;1.30;;;;;;;;;;4912694;28;20040;-77
2023/06/14 12:24:42;;;;;;;4.97;1.40;;;;;;;;;;4933434;28;20039;-77
2023/06/14 12:27:11;;;;;;;3.63;1.45;;;;;;;;;;4932142;28;20157;-76
2023/06/14 12:29:37;;;;;;;1.63;1.40;;;;;;;;;;4914181;28;20088;-76
2023/06/14 12:32:03;;;;;;;3.45;1.40;;;;;;;;;;4931118;28;20472;-76
2023/06/14 12:34:30;;;;;;;2.05;1.45;;;;;;;;;;4897205;28;20668;-77
2023/06/14 12:36:57;;;;;;;4.63;1.48;;;;;;;;;;4927347;28;20142;-76
2023/06/14 12:39:24;;;;;;;2.88;1.50;;;29.10;99.70;;;;;;4905680;28;20121;-77
2023/06/14 12:41:50;;;;;;;4.72;1.45;;;;;;;;;;4915918;28;20125;-77
2023/06/14 12:44:16;;;;;;;4.55;1.45;;;;;;;;;;4927218;28;20044;-77
2023/06/14 12:46:43;;;;;;;4.22;1.50;;;;;;;;;;4923887;28;20691;-77
2023/06/14 12:49:12;;;;;;;5.13;1.30;;;;;;;;;;4932492;28;20061;-77
2023/06/14 12:51:40;;;;;;;4.32;1.60;;;;;;;;;;4912295;28;20059;-77
2023/06/14 12:54:06;;;;;;;2.53;1.50;;;;;;;;;;4900201;29;20059;-76
2023/06/14 12:56:32;;;;;;;3.45;1.35;;;;;;;;;;4899243;29;21272;-77
2023/06/14 12:58:58;;;;;;;5.00;1.50;;;29.60;98.70;;;;;;4914844;29;20267;-76
2023/06/14 13:01:24;;;;;;;5.32;1.75;;;;;;;;;;4915448;29;21607;-77
2023/06/14 13:03:53;;;;;;;6.07;1.42;;;;;;;;;;4907252;28;20564;-76
2023/06/14 13:06:21;;;;;;;4.43;1.30;;;;;;;;;;4897024;29;20056;-76
2023/06/14 13:08:48;;;;;;;4.63;1.50;;;;;;;;;;4912579;29;21775;-77
2023/06/14 13:11:14;;;;;;;4.53;1.70;;;;;;;;;;4912897;29;20051;-76
2023/06/14 13:13:40;;;;;;;4.10;1.52;;;;;;;;;;4914385;29;20052;-76
2023/06/14 13:16:06;;;;;;;3.45;1.60;;;;;;;;;;4914088;29;20878;-77
2023/06/14 13:18:32;;;;;;;6.57;1.75;;;;;;;;;;4896852;29;20074;-75
2023/06/14 13:20:58;;;;;;;7.85;1.98;;;;;;;;;;4898337;29;20047;-76
2023/06/14 13:23:25;;;;;;;2.75;1.50;;;;;;;;;;4916134;29;20047;-77
2023/06/14 13:25:51;;;;;;;22.95;2.72;;;;;;;;;;4911572;29;20055;-76
2023/06/14 13:28:17;;;;;;;5.72;1.75;;;;;;;;;;4914113;29;20126;-76
2023/06/14 13:30:43;;;;;;;4.28;1.63;;;;;;;;;;4913520;29;20649;-78
2023/06/14 13:33:09;;;;;;;2.97;1.73;;;;;;;;;;4896322;29;20059;-76
2023/06/14 13:35:36;;;;;;;7.60;1.80;;;;;;;;;;4892267;29;20044;-75
2023/06/14 13:38:02;;;;;;;3.35;1.40;;;;;;;;;;4911426;29;20329;-76
2023/06/14 13:40:28;;;;;;;6.63;1.60;;;;;;;;;;4912673;29;20040;-76
2023/06/14 13:42:54;;;;;;;7.78;1.50;;;;;;;;;;4908526;28;20035;-76
2023/06/14 13:45:20;;;;;;;3.67;1.67;;;;;;;;;;4899971;29;20078;-76
2023/06/14 13:47:48;;;;;;;5.55;1.50;;;;;;;;;;4914079;29;20047;-75
2023/06/14 13:50:15;;;;;;;4.68;1.75;;;;;;;;;;4894572;29;20130;-76
2023/06/14 13:52:41;;;;;;;8.13;1.70;;;;;;;;;;4926524;28;20082;-76
2023/06/14 13:55:08;;;;;;;3.42;1.58;;;;;;;;;;4913678;28;20824;-76
2023/06/14 13:57:34;;;;;;;3.15;1.55;;;;;;;;;;4929611;28;20043;-76
2023/06/14 14:00:01;;;;;;;4.22;1.42;;;;;;;;;;4902133;28;20067;-76
2023/06/14 14:02:28;;;;;;;5.03;1.40;;;;;;;;;;4930146;28;20058;-76
2023/06/14 14:04:55;;;;;;;3.50;1.70;;;;;;;;;;4929259;28;20039;-76
2023/06/14 14:07:22;;;;;;;4.50;1.70;;;;;;;;;;4917464;28;20043;-76
2023/06/14 14:09:48;;;;;;;4.60;1.50;;;;;;;;;;4922309;28;20047;-77
2023/06/14 14:12:14;;;;;;;3.17;1.70;;;;;;;;;;4933642;28;20054;-76
2023/06/14 14:14:40;;;;;;;2.75;1.60;;;;;;;;;;4930707;28;20043;-77
2023/06/14 14:17:07;;;;;;;3.42;1.90;;;;;;;;;;4913619;28;20063;-79
2023/06/14 14:19:33;;;;;;;3.63;1.48;;;;;;;;;;4913573;28;21635;-75
2023/06/14 14:22:01;;;;;;;3.38;1.90;;;;;;;;;;4933637;28;20046;-75
2023/06/14 14:24:27;;;;;;;7.18;1.70;;;;;;;;;;4915961;28;20053;-75
2023/06/14 14:26:53;;;;;;;8.18;1.75;;;;;;;;;;4935220;28;20591;-75
2023/06/14 14:29:20;;;;;;;4.32;1.55;;;;;;;;;;4918722;28;20403;-75
2023/06/14 14:31:46;;;;;;;2.30;1.48;;;;;;;;;;4915706;28;20513;-75
2023/06/14 14:34:12;;;;;;;2.25;1.63;;;;;;;;;;4934408;28;20674;-75
2023/06/14 14:36:42;;;;;;;6.15;1.80;;;;;;;;;;4903963;28;20051;-75
2023/06/14 14:39:08;;;;;;;5.60;1.63;;;;;;;;;;4931784;28;20104;-75
2023/06/14 14:41:34;;;;;;;4.20;1.77;;;;;;;;;;4916484;28;20058;-75
2023/06/14 14:44:00;;;;;;;2.63;1.60;;;;;;;;;;4918925;28;20054;-75